Time;durP1;ratioP1;P1;durP2;ratioP2;P2;SDS_P1;SDS_P2;PMS_P1;PMS_P2;Temp;Humidity;BMP_temperature;BMP_pressure;BME280_temperature;BME280_humidity;BME280_pressure;Samples;Min_cycle;Max_cycle;Signal;HPM_P1;HPM_P2
2022/08/19 00:01:24;;;;;;;;;;;21.90;76.60;;;;;;5049192;28;19929;-67
2022/08/19 00:03:49;;;;;;;;;;;21.90;76.60;;;;;;5053052;28;19913;-67
2022/08/19 00:06:15;;;;;;;;;;;21.90;76.90;;;;;;5047222;28;19945;-67
2022/08/19 00:08:41;;;;;;;;;;;21.80;77.10;;;;;;5052495;28;19916;-67
2022/08/19 00:11:07;;;;;;;;;;;21.80;77.00;;;;;;5028482;28;19912;-67
2022/08/19 00:13:33;;;;;;;;;;;21.80;76.60;;;;;;5047124;28;20361;-67
2022/08/19 00:16:00;;;;;;;;;;;21.80;76.80;;;;;;5049460;28;19920;-67
2022/08/19 00:18:26;;;;;;;;;;;21.80;76.70;;;;;;5047436;28;19912;-67
2022/08/19 00:20:51;;;;;;;;;;;21.70;77.00;;;;;;5046668;28;19919;-67
2022/08/19 00:23:17;;;;;;;;;;;21.70;77.30;;;;;;5046447;28;19913;-67
2022/08/19 00:25:42;;;;;;;;;;;21.70;77.00;;;;;;5050264;28;19917;-67
2022/08/19 00:28:08;;;;;;;;;;;21.70;77.50;;;;;;5048096;28;20373;-67
2022/08/19 00:30:33;;;;;;;;;;;21.70;77.50;;;;;;5045343;28;19921;-67
2022/08/19 00:32:59;;;;;;;;;;;21.70;77.20;;;;;;5043830;28;19970;-67
2022/08/19 00:35:26;;;;;;;;;;;21.70;77.50;;;;;;5047987;28;19973;-67
2022/08/19 00:37:52;;;;;;;;;;;21.60;77.40;;;;;;5044909;28;19968;-67
2022/08/19 00:40:19;;;;;;;;;;;21.60;77.50;;;;;;5044613;28;19913;-67
2022/08/19 00:42:44;;;;;;;;;;;21.60;77.50;;;;;;5049654;28;19969;-67
2022/08/19 00:45:16;;;;;;;;;;;21.60;78.00;;;;;;5044367;28;20649;-67
2022/08/19 00:47:42;;;;;;;;;;;21.50;77.80;;;;;;5050822;28;19909;-67
2022/08/19 00:50:08;;;;;;;;;;;21.50;78.00;;;;;;5045197;28;20023;-67
2022/08/19 00:52:36;;;;;;;;;;;21.50;78.40;;;;;;5039960;28;19913;-67
2022/08/19 00:55:03;;;;;;;;;;;21.50;77.90;;;;;;5046170;28;19913;-67
2022/08/19 00:57:32;;;;;;;;;;;21.50;78.00;;;;;;5045978;28;19938;-67
2022/08/19 00:59:59;;;;;;;;;;;21.40;77.70;;;;;;5046497;28;19912;-67
2022/08/19 01:02:25;;;;;;;;;;;21.40;78.00;;;;;;5051400;28;19924;-67
2022/08/19 01:04:51;;;;;;;;;;;21.40;79.00;;;;;;5045933;28;19997;-67
2022/08/19 01:07:17;;;;;;;;;;;21.40;78.90;;;;;;5028016;28;20573;-67
2022/08/19 01:09:43;;;;;;;;;;;21.40;79.40;;;;;;5045643;28;19916;-67
2022/08/19 01:12:08;;;;;;;;;;;21.30;79.50;;;;;;5044888;28;19920;-67
2022/08/19 01:14:34;;;;;;;;;;;21.30;79.10;;;;;;5045346;28;19940;-67
2022/08/19 01:17:00;;;;;;;;;;;21.30;79.20;;;;;;5047996;28;19913;-67
2022/08/19 01:19:29;;;;;;;;;;;21.30;79.40;;;;;;5044942;28;19920;-67
2022/08/19 01:21:57;;;;;;;;;;;21.30;79.80;;;;;;5044339;28;20012;-67
2022/08/19 01:24:23;;;;;;;;;;;21.30;80.00;;;;;;5040520;28;19919;-67
2022/08/19 01:26:48;;;;;;;;;;;21.20;80.00;;;;;;5027670;28;19917;-67
2022/08/19 01:29:14;;;;;;;;;;;21.20;80.20;;;;;;5046096;28;19956;-67
2022/08/19 01:31:40;;;;;;;;;;;21.20;80.10;;;;;;5059179;28;19954;-67
2022/08/19 01:34:05;;;;;;;;;;;21.20;80.20;;;;;;5045782;28;20023;-67
2022/08/19 01:36:45;;;;;;;;;;;21.20;80.20;;;;;;5045872;28;19916;-67
2022/08/19 01:39:11;;;;;;;;;;;21.10;80.30;;;;;;5041519;28;20280;-67
2022/08/19 01:41:37;;;;;;;;;;;21.10;80.30;;;;;;5064484;28;19913;-67
2022/08/19 01:44:04;;;;;;;;;;;21.10;80.40;;;;;;5064724;28;19970;-67
2022/08/19 01:46:30;;;;;;;;;;;21.10;80.60;;;;;;5051477;28;20511;-67
2022/08/19 01:48:56;;;;;;;;;;;21.10;80.50;;;;;;5064284;28;19994;-67
2022/08/19 01:51:21;;;;;;;;;;;21.10;80.50;;;;;;5067704;28;20003;-67
2022/08/19 01:53:50;;;;;;;;;;;21.00;80.20;;;;;;5069005;28;19999;-67
2022/08/19 01:56:16;;;;;;;;;;;21.00;80.60;;;;;;5068722;28;19990;-67
2022/08/19 01:58:46;;;;;;;;;;;21.00;80.50;;;;;;5068551;28;19912;-67
2022/08/19 02:01:12;;;;;;;;;;;21.00;80.60;;;;;;5050155;28;19920;-67
2022/08/19 02:03:38;;;;;;;;;;;21.00;80.70;;;;;;5055284;28;19912;-67
2022/08/19 02:06:04;;;;;;;;;;;21.00;80.60;;;;;;5049355;28;19981;-67
2022/08/19 02:08:30;;;;;;;;;;;21.00;80.60;;;;;;5049405;28;19913;-67
2022/08/19 02:10:56;;;;;;;;;;;20.90;80.60;;;;;;5048654;28;19919;-67
2022/08/19 02:13:22;;;;;;;;;;;20.90;80.70;;;;;;5049263;28;19916;-67
2022/08/19 02:15:48;;;;;;;;;;;20.90;80.70;;;;;;5050383;28;19956;-67
2022/08/19 02:18:13;;;;;;;;;;;20.90;80.70;;;;;;5052204;28;20033;-67
2022/08/19 02:20:40;;;;;;;;;;;20.90;80.80;;;;;;5048322;28;20006;-67
2022/08/19 02:23:06;;;;;;;;;;;20.90;80.60;;;;;;5048697;28;19916;-67
2022/08/19 02:25:32;;;;;;;;;;;20.90;80.80;;;;;;5048941;28;19921;-67
2022/08/19 02:27:57;;;;;;;;;;;20.80;80.80;;;;;;5030688;28;19919;-67
2022/08/19 02:30:24;;;;;;;;;;;20.80;80.80;;;;;;5048759;28;19913;-67
2022/08/19 02:32:49;;;;;;;;;;;20.80;80.80;;;;;;5051333;28;19912;-67
2022/08/19 02:35:15;;;;;;;;;;;20.80;80.90;;;;;;5049166;28;19921;-67
2022/08/19 02:40:26;;;;;;;;;;;20.70;80.90;;;;;;5050809;28;20364;-67
2022/08/19 02:42:51;;;;;;;;;;;20.70;80.80;;;;;;5048407;28;19917;-67
2022/08/19 02:45:17;;;;;;;;;;;20.70;80.80;;;;;;5048496;28;19968;-67
2022/08/19 02:47:42;;;;;;;;;;;20.70;80.90;;;;;;5057583;28;20422;-67
2022/08/19 02:50:08;;;;;;;;;;;20.70;80.90;;;;;;5058321;28;20447;-67
2022/08/19 02:52:34;;;;;;;;;;;20.70;81.00;;;;;;5053317;28;19917;-67
2022/08/19 02:55:00;;;;;;;;;;;20.70;81.00;;;;;;5047852;28;19921;-67
2022/08/19 02:57:26;;;;;;;;;;;20.70;81.00;;;;;;5048555;28;20483;-67
2022/08/19 02:59:52;;;;;;;;;;;20.70;81.00;;;;;;5048269;28;19913;-67
2022/08/19 03:02:17;;;;;;;;;;;20.60;81.00;;;;;;5053351;28;19916;-67
2022/08/19 03:04:43;;;;;;;;;;;20.60;81.00;;;;;;5047609;28;20007;-67
2022/08/19 03:07:09;;;;;;;;;;;20.60;81.20;;;;;;5049952;28;20015;-67
2022/08/19 03:09:36;;;;;;;;;;;20.60;81.10;;;;;;5061356;28;19990;-67
2022/08/19 03:12:02;;;;;;;;;;;20.60;81.10;;;;;;5051413;28;19912;-67
2022/08/19 03:14:30;;;;;;;;;;;20.60;81.20;;;;;;5048077;28;19913;-67
2022/08/19 03:16:55;;;;;;;;;;;20.50;81.10;;;;;;5054226;28;19913;-67
2022/08/19 03:19:21;;;;;;;;;;;20.50;81.20;;;;;;5048011;28;19909;-67
2022/08/19 03:21:47;;;;;;;;;;;20.50;81.20;;;;;;5047379;28;19916;-67
2022/08/19 03:24:13;;;;;;;;;;;20.50;81.10;;;;;;5047731;28;19912;-67
2022/08/19 03:26:43;;;;;;;;;;;20.50;81.20;;;;;;5048331;28;19913;-66
2022/08/19 03:29:10;;;;;;;;;;;20.50;81.20;;;;;;5047423;28;19917;-67
2022/08/19 03:31:37;;;;;;;;;;;20.50;81.20;;;;;;5049287;28;20589;-67
2022/08/19 03:34:02;;;;;;;;;;;20.50;81.00;;;;;;5047752;28;20462;-67
2022/08/19 03:36:28;;;;;;;;;;;20.50;81.40;;;;;;5056403;28;19978;-67
2022/08/19 03:38:56;;;;;;;;;;;20.50;81.20;;;;;;5064900;28;19912;-67
2022/08/19 03:41:23;;;;;;;;;;;20.40;81.30;;;;;;5064681;28;20162;-67
2022/08/19 03:43:49;;;;;;;;;;;20.50;81.40;;;;;;5047044;28;19966;-66
2022/08/19 03:46:16;;;;;;;;;;;20.50;81.40;;;;;;5030479;28;19912;-67
2022/08/19 03:48:42;;;;;;;;;;;20.40;81.40;;;;;;5031755;28;20353;-67
2022/08/19 03:51:14;;;;;;;;;;;20.40;81.50;;;;;;5048730;28;19917;-67
2022/08/19 03:53:40;;;;;;;;;;;20.40;81.60;;;;;;5047339;28;20008;-67
2022/08/19 03:56:08;;;;;;;;;;;20.40;81.60;;;;;;5047301;28;20337;-67
2022/08/19 03:58:33;;;;;;;;;;;20.40;81.60;;;;;;5048085;28;19926;-66
2022/08/19 04:00:59;;;;;;;;;;;20.40;81.60;;;;;;5046889;28;19912;-67
2022/08/19 04:03:26;;;;;;;;;;;20.40;81.60;;;;;;5041943;28;19917;-66
2022/08/19 04:05:53;;;;;;;;;;;20.40;81.70;;;;;;5040833;28;19924;-66
2022/08/19 04:08:19;;;;;;;;;;;20.40;81.70;;;;;;5047486;28;19909;-67
2022/08/19 04:10:46;;;;;;;;;;;20.30;81.70;;;;;;5048157;28;19927;-67
2022/08/19 04:13:11;;;;;;;;;;;20.30;81.60;;;;;;5047187;28;19912;-67
2022/08/19 04:15:41;;;;;;;;;;;20.30;81.70;;;;;;5046818;28;19983;-67
2022/08/19 04:18:10;;;;;;;;;;;20.30;81.60;;;;;;5049418;28;19913;-66
2022/08/19 04:20:40;;;;;;;;;;;20.30;81.70;;;;;;5046347;28;19913;-67
2022/08/19 04:23:06;;;;;;;;;;;20.30;81.70;;;;;;5046737;28;19991;-67
2022/08/19 04:25:35;;;;;;;;;;;20.30;81.80;;;;;;5051361;28;20457;-67
2022/08/19 04:28:00;;;;;;;;;;;20.30;81.90;;;;;;5046770;28;19917;-67
2022/08/19 04:30:26;;;;;;;;;;;20.30;81.90;;;;;;5046594;28;19913;-67
2022/08/19 04:32:51;;;;;;;;;;;20.20;81.70;;;;;;5049369;28;19954;-66
2022/08/19 04:35:17;;;;;;;;;;;20.20;81.90;;;;;;5047021;28;19921;-66
2022/08/19 04:37:43;;;;;;;;;;;20.20;81.50;;;;;;5046719;28;19916;-67
2022/08/19 04:42:53;;;;;;;;;;;20.20;81.80;;;;;;5054106;28;20061;-67
2022/08/19 04:45:19;;;;;;;;;;;20.20;81.80;;;;;;5048955;28;19919;-66
2022/08/19 04:47:44;;;;;;;;;;;20.20;81.70;;;;;;5052391;28;19913;-67
2022/08/19 04:50:11;;;;;;;;;;;20.20;81.90;;;;;;5046185;28;20003;-66
2022/08/19 04:52:36;;;;;;;;;;;20.20;81.80;;;;;;5045885;28;20054;-67
2022/08/19 04:55:02;;;;;;;;;;;20.20;81.80;;;;;;5046252;28;20011;-67
2022/08/19 04:57:28;;;;;;;;;;;20.20;81.80;;;;;;5047093;28;19909;-66
2022/08/19 04:59:54;;;;;;;;;;;20.20;81.80;;;;;;5046050;28;19912;-67
2022/08/19 05:02:22;;;;;;;;;;;20.20;81.40;;;;;;5051918;28;19970;-66
2022/08/19 05:04:48;;;;;;;;;;;20.20;81.30;;;;;;5041009;28;19919;-67
2022/08/19 05:07:13;;;;;;;;;;;20.20;81.30;;;;;;5045894;28;19913;-66
2022/08/19 05:09:39;;;;;;;;;;;20.20;81.40;;;;;;5027850;28;20644;-67
2022/08/19 05:12:06;;;;;;;;;;;20.20;81.20;;;;;;5027409;28;19912;-67
2022/08/19 05:14:31;;;;;;;;;;;20.20;81.30;;;;;;5046566;28;19920;-67
2022/08/19 05:16:56;;;;;;;;;;;20.20;81.30;;;;;;5048761;28;19928;-67
2022/08/19 05:24:51;;;;;;;;;;;20.20;81.00;;;;;;5064367;28;20626;-67
2022/08/19 05:27:16;;;;;;;;;;;20.20;81.00;;;;;;5046476;28;19912;-67
2022/08/19 05:29:42;;;;;;;;;;;20.20;81.00;;;;;;5064690;28;19970;-67
2022/08/19 05:32:10;;;;;;;;;;;20.20;80.90;;;;;;5061945;28;19923;-67
2022/08/19 05:34:37;;;;;;;;;;;20.30;81.00;;;;;;5048003;28;20309;-67
2022/08/19 05:37:04;;;;;;;;;;;20.20;80.90;;;;;;5045913;28;19979;-67
2022/08/19 05:39:31;;;;;;;;;;;20.20;80.90;;;;;;5045860;28;20772;-67
2022/08/19 05:41:58;;;;;;;;;;;20.20;80.90;;;;;;5045734;28;20007;-67
2022/08/19 05:44:31;;;;;;;;;;;20.20;80.90;;;;;;5045925;28;19919;-67
2022/08/19 05:46:57;;;;;;;;;;;20.20;80.90;;;;;;5052383;28;20447;-66
2022/08/19 05:49:25;;;;;;;;;;;20.20;80.90;;;;;;5046574;28;19917;-66
2022/08/19 05:51:51;;;;;;;;;;;20.30;81.00;;;;;;5045322;28;19912;-67
2022/08/19 05:54:17;;;;;;;;;;;20.30;81.10;;;;;;5045722;28;19913;-67
2022/08/19 05:56:43;;;;;;;;;;;20.30;81.00;;;;;;5045728;28;19915;-66
2022/08/19 05:59:11;;;;;;;;;;;20.30;81.00;;;;;;5045786;28;19913;-67
2022/08/19 06:01:37;;;;;;;;;;;20.30;81.00;;;;;;5046807;28;20007;-67
2022/08/19 06:04:03;;;;;;;;;;;20.30;80.90;;;;;;5050119;28;19909;-66
2022/08/19 06:06:29;;;;;;;;;;;20.30;81.00;;;;;;5046471;28;19917;-67
2022/08/19 06:08:55;;;;;;;;;;;20.30;81.00;;;;;;5046150;28;19928;-67
2022/08/19 06:11:20;;;;;;;;;;;20.30;80.90;;;;;;5045325;28;19917;-67
2022/08/19 06:13:50;;;;;;;;;;;20.30;80.80;;;;;;5027663;28;19970;-67
2022/08/19 06:16:22;;;;;;;;;;;20.30;80.90;;;;;;5049206;28;20431;-66
2022/08/19 06:18:54;;;;;;;;;;;20.40;80.90;;;;;;5045365;28;20307;-67
2022/08/19 06:21:25;;;;;;;;;;;20.40;80.80;;;;;;5039563;28;20007;-67
2022/08/19 06:23:51;;;;;;;;;;;20.40;80.80;;;;;;5045219;28;19923;-67
2022/08/19 06:26:18;;;;;;;;;;;20.40;80.70;;;;;;5045512;28;19917;-66
2022/08/19 06:28:46;;;;;;;;;;;20.40;80.60;;;;;;5046054;28;19921;-67
2022/08/19 06:31:13;;;;;;;;;;;20.40;80.60;;;;;;5044994;28;20561;-67
2022/08/19 06:33:39;;;;;;;;;;;20.40;80.60;;;;;;5050081;28;20372;-66
2022/08/19 06:36:05;;;;;;;;;;;20.40;80.70;;;;;;5049777;28;19939;-67
2022/08/19 06:38:32;;;;;;;;;;;20.50;80.40;;;;;;5048443;28;19917;-67
2022/08/19 06:41:04;;;;;;;;;;;20.40;80.50;;;;;;5047892;28;19913;-67
2022/08/19 06:43:29;;;;;;;;;;;20.50;80.60;;;;;;5051242;28;19917;-67
2022/08/19 06:45:55;;;;;;;;;;;20.50;80.40;;;;;;5049922;28;19913;-67
2022/08/19 06:48:20;;;;;;;;;;;20.50;80.30;;;;;;5053917;28;19924;-67
2022/08/19 06:50:47;;;;;;;;;;;20.50;80.20;;;;;;5048506;28;20365;-67
2022/08/19 06:53:12;;;;;;;;;;;20.60;80.20;;;;;;5048888;28;19939;-66
2022/08/19 06:55:39;;;;;;;;;;;20.50;80.30;;;;;;5048528;28;19912;-67
2022/08/19 06:58:04;;;;;;;;;;;20.60;80.10;;;;;;5030204;28;19909;-67
2022/08/19 07:00:31;;;;;;;;;;;20.60;80.10;;;;;;5048957;28;19959;-67
2022/08/19 07:02:58;;;;;;;;;;;20.60;80.10;;;;;;5057524;28;20467;-67
2022/08/19 07:05:23;;;;;;;;;;;20.60;79.90;;;;;;5048399;28;20024;-67
2022/08/19 07:07:49;;;;;;;;;;;20.60;79.90;;;;;;5048532;28;20403;-67
2022/08/19 07:10:15;;;;;;;;;;;20.60;79.80;;;;;;5048235;28;19944;-67
2022/08/19 07:12:41;;;;;;;;;;;20.70;80.10;;;;;;5048224;28;20615;-67
2022/08/19 07:15:08;;;;;;;;;;;20.70;79.80;;;;;;5048359;28;19909;-68
2022/08/19 07:17:37;;;;;;;;;;;20.70;80.60;;;;;;5052894;28;19928;-67
2022/08/19 07:20:02;;;;;;;;;;;20.70;80.40;;;;;;5049163;28;19917;-67
2022/08/19 07:22:28;;;;;;;;;;;20.70;79.90;;;;;;5047742;28;19923;-68
2022/08/19 07:24:53;;;;;;;;;;;20.70;79.50;;;;;;5047925;28;19935;-67
2022/08/19 07:27:19;;;;;;;;;;;20.80;79.70;;;;;;5047832;28;20012;-67
2022/08/19 07:29:45;;;;;;;;;;;20.80;79.60;;;;;;5051659;28;20373;-67
2022/08/19 07:32:11;;;;;;;;;;;20.80;79.60;;;;;;5058079;28;19917;-67
2022/08/19 07:34:37;;;;;;;;;;;20.90;79.70;;;;;;5048850;28;19916;-67
2022/08/19 07:37:06;;;;;;;;;;;20.90;79.40;;;;;;5053628;28;19976;-67
2022/08/19 07:39:33;;;;;;;;;;;20.90;79.30;;;;;;5047756;28;19913;-67
2022/08/19 07:42:00;;;;;;;;;;;20.90;79.20;;;;;;5047439;28;19924;-67
2022/08/19 07:44:26;;;;;;;;;;;20.90;79.40;;;;;;5042645;28;19912;-67
2022/08/19 07:46:53;;;;;;;;;;;21.00;79.50;;;;;;5053320;28;19920;-67
2022/08/19 07:49:19;;;;;;;;;;;21.00;79.40;;;;;;5046813;28;19912;-67
2022/08/19 07:51:50;;;;;;;;;;;21.00;79.20;;;;;;5047990;28;19917;-67
2022/08/19 07:54:16;;;;;;;;;;;21.10;79.30;;;;;;5047288;28;19928;-68
2022/08/19 07:56:41;;;;;;;;;;;21.10;79.70;;;;;;5047232;28;19920;-69
2022/08/19 07:59:08;;;;;;;;;;;21.10;79.20;;;;;;5047368;28;19935;-67
2022/08/19 08:01:34;;;;;;;;;;;21.10;78.90;;;;;;5047482;28;19924;-67
2022/08/19 08:09:30;;;;;;;;;;;21.20;78.90;;;;;;5047376;28;19971;-67
2022/08/19 08:11:58;;;;;;;;;;;21.20;79.00;;;;;;5047093;28;19962;-67
2022/08/19 08:14:29;;;;;;;;;;;21.30;79.00;;;;;;5047221;28;19913;-67
2022/08/19 08:16:54;;;;;;;;;;;21.30;78.70;;;;;;5053562;28;20561;-67
2022/08/19 08:19:21;;;;;;;;;;;21.30;78.60;;;;;;5047088;28;19912;-67
2022/08/19 08:21:47;;;;;;;;;;;21.40;79.10;;;;;;5046934;28;19978;-67
2022/08/19 08:24:13;;;;;;;;;;;21.40;78.60;;;;;;5046893;28;19916;-67
2022/08/19 08:26:39;;;;;;;;;;;21.40;78.90;;;;;;5046608;28;19913;-67
2022/08/19 08:29:05;;;;;;;;;;;21.50;78.40;;;;;;5051083;28;19922;-67
2022/08/19 08:31:30;;;;;;;;;;;21.50;78.60;;;;;;5048737;28;20358;-67
2022/08/19 08:33:56;;;;;;;;;;;21.60;78.60;;;;;;5048152;28;20461;-67
2022/08/19 08:36:21;;;;;;;;;;;21.60;78.50;;;;;;5058699;28;19924;-67
2022/08/19 08:38:47;;;;;;;;;;;21.60;78.30;;;;;;5056164;28;19952;-67
2022/08/19 08:41:21;;;;;;;;;;;21.70;78.20;;;;;;5046859;28;19944;-67
2022/08/19 08:43:48;;;;;;;;;;;21.70;78.10;;;;;;5046539;28;20003;-69
2022/08/19 08:46:40;;;;;;;;;;;21.80;78.30;;;;;;5047748;28;20018;-68
2022/08/19 08:49:20;;;;;;;;;;;21.80;78.20;;;;;;5041581;28;19920;-67
2022/08/19 08:51:47;;;;;;;;;;;21.90;78.80;;;;;;5052192;28;19923;-67
2022/08/19 08:54:15;;;;;;;;;;;21.90;79.20;;;;;;5046395;28;20661;-67
2022/08/19 08:56:42;;;;;;;;;;;21.90;77.90;;;;;;5041494;28;19917;-67
2022/08/19 08:59:28;;;;;;;;;;;22.00;78.80;;;;;;5045953;28;19920;-67
2022/08/19 09:01:53;;;;;;;;;;;22.00;78.80;;;;;;5048524;28;19924;-67
2022/08/19 09:04:19;;;;;;;;;;;22.10;78.70;;;;;;5049034;28;19913;-67
2022/08/19 09:06:45;;;;;;;;;;;22.10;78.10;;;;;;5046995;28;20003;-67
2022/08/19 09:09:13;;;;;;;;;;;22.20;78.90;;;;;;5046370;28;19920;-67
2022/08/19 09:12:06;;;;;;;;;;;22.30;79.20;;;;;;5045899;28;19912;-67
2022/08/19 09:14:32;;;;;;;;;;;22.30;78.20;;;;;;5046269;28;19917;-67
2022/08/19 09:16:57;;;;;;;;;;;22.40;78.30;;;;;;5050673;28;19965;-67
2022/08/19 09:19:23;;;;;;;;;;;22.50;77.90;;;;;;5046362;28;19913;-68
2022/08/19 09:21:50;;;;;;;;;;;22.50;77.90;;;;;;5052684;28;20372;-67
2022/08/19 09:24:15;;;;;;;;;;;22.60;77.40;;;;;;5047109;28;19917;-68
2022/08/19 09:26:43;;;;;;;;;;;22.60;77.20;;;;;;5046114;28;19967;-67
2022/08/19 09:29:10;;;;;;;;;;;22.70;77.20;;;;;;5045734;28;19912;-67
2022/08/19 09:31:35;;;;;;;;;;;22.80;77.70;;;;;;5047549;28;19919;-67
2022/08/19 09:34:03;;;;;;;;;;;22.90;77.30;;;;;;5047217;28;19917;-67
2022/08/19 09:36:32;;;;;;;;;;;22.90;77.00;;;;;;5065279;28;20221;-67
2022/08/19 09:38:59;;;;;;;;;;;23.00;76.90;;;;;;5063167;28;20031;-67
2022/08/19 09:41:27;;;;;;;;;;;23.00;77.30;;;;;;5047424;28;20565;-67
2022/08/19 09:43:55;;;;;;;;;;;23.10;76.40;;;;;;5045637;28;19913;-67
2022/08/19 09:46:21;;;;;;;;;;;23.30;76.60;;;;;;5051352;28;19948;-67
2022/08/19 09:48:48;;;;;;;;;;;23.30;75.50;;;;;;5047288;28;20461;-68
2022/08/19 09:51:15;;;;;;;;;;;23.30;76.00;;;;;;5064435;28;19946;-68
2022/08/19 09:53:42;;;;;;;;;;;23.40;75.80;;;;;;5064940;28;20007;-68
2022/08/19 09:56:07;;;;;;;;;;;23.50;75.70;;;;;;5056701;28;20402;-67
2022/08/19 09:58:34;;;;;;;;;;;23.50;75.70;;;;;;5045959;28;19919;-67
2022/08/19 10:01:00;;;;;;;;;;;23.50;75.30;;;;;;5045311;28;20549;-67
2022/08/19 10:03:26;;;;;;;;;;;23.60;75.70;;;;;;5043472;28;20015;-68
2022/08/19 10:05:52;;;;;;;;;;;23.60;75.30;;;;;;5064646;28;19973;-67
2022/08/19 10:08:28;;;;;;;;;;;23.60;75.20;;;;;;5046883;28;20679;-67
2022/08/19 10:10:54;;;;;;;;;;;23.70;75.60;;;;;;5065407;28;19920;-67
2022/08/19 10:13:25;;;;;;;;;;;23.70;75.00;;;;;;5058131;28;20028;-67
2022/08/19 10:15:52;;;;;;;;;;;23.70;75.10;;;;;;5050729;28;20007;-67
2022/08/19 10:18:18;;;;;;;;;;;23.90;75.00;;;;;;5033100;28;19913;-67
2022/08/19 10:20:45;;;;;;;;;;;23.90;74.70;;;;;;5059705;28;19955;-67
2022/08/19 10:23:11;;;;;;;;;;;23.90;74.60;;;;;;5059767;28;19920;-67
2022/08/19 10:25:37;;;;;;;;;;;24.00;74.70;;;;;;5057755;28;19912;-67
2022/08/19 10:28:04;;;;;;;;;;;24.00;74.60;;;;;;5048228;28;19987;-68
2022/08/19 10:30:29;;;;;;;;;;;24.00;74.70;;;;;;5048903;28;19971;-68
2022/08/19 10:32:55;;;;;;;;;;;24.10;74.40;;;;;;5051272;28;19916;-68
2022/08/19 10:35:20;;;;;;;;;;;24.10;74.10;;;;;;5049392;28;19970;-68
2022/08/19 10:37:46;;;;;;;;;;;24.20;73.80;;;;;;5063176;28;19973;-68
2022/08/19 10:40:11;;;;;;;;;;;24.30;73.80;;;;;;5054370;28;19978;-67
2022/08/19 10:42:37;;;;;;;;;;;24.40;73.50;;;;;;5048147;28;19913;-67
2022/08/19 10:45:05;;;;;;;;;;;24.40;73.20;;;;;;5048041;28;19912;-67
2022/08/19 10:47:31;;;;;;;;;;;24.40;73.20;;;;;;5055654;28;19930;-67
2022/08/19 10:52:45;;;;;;;;;;;24.50;73.40;;;;;;5048079;28;20059;-67
2022/08/19 10:57:55;;;;;;;;;;;24.60;73.20;;;;;;5047588;28;19959;-68
2022/08/19 11:00:22;;;;;;;;;;;24.60;73.00;;;;;;5047592;28;19916;-68
2022/08/19 11:02:48;;;;;;;;;;;24.70;72.70;;;;;;5055281;28;19916;-68
2022/08/19 11:05:14;;;;;;;;;;;24.70;72.70;;;;;;5049245;28;20415;-68
2022/08/19 11:07:40;;;;;;;;;;;24.80;72.80;;;;;;5047602;28;20416;-68
2022/08/19 11:10:06;;;;;;;;;;;24.90;72.30;;;;;;5047441;28;19920;-68
2022/08/19 11:12:32;;;;;;;;;;;25.00;72.00;;;;;;5037500;28;19916;-68
2022/08/19 11:14:58;;;;;;;;;;;25.10;71.70;;;;;;5063537;28;19912;-68
2022/08/19 11:17:23;;;;;;;;;;;25.10;71.80;;;;;;5057480;28;19912;-68
2022/08/19 11:19:49;;;;;;;;;;;25.10;72.00;;;;;;5048400;28;20377;-68
2022/08/19 11:22:15;;;;;;;;;;;25.10;72.10;;;;;;5045899;28;19927;-68
2022/08/19 11:24:41;;;;;;;;;;;25.00;72.30;;;;;;5049588;28;19963;-68
2022/08/19 11:27:08;;;;;;;;;;;25.10;72.20;;;;;;5047238;28;20713;-68
2022/08/19 11:29:35;;;;;;;;;;;25.10;72.30;;;;;;5047315;28;20365;-68
2022/08/19 11:32:03;;;;;;;;;;;25.10;72.20;;;;;;5050759;28;19959;-68
2022/08/19 11:34:29;;;;;;;;;;;25.10;72.30;;;;;;5048066;28;19920;-68
2022/08/19 11:36:58;;;;;;;;;;;25.10;72.30;;;;;;5048512;28;19917;-68
2022/08/19 11:39:24;;;;;;;;;;;25.20;72.20;;;;;;5047588;28;19916;-68
2022/08/19 11:41:50;;;;;;;;;;;25.20;72.10;;;;;;5047163;28;19917;-68
2022/08/19 11:44:15;;;;;;;;;;;25.20;72.00;;;;;;5047472;28;19962;-68
2022/08/19 11:46:45;;;;;;;;;;;25.20;71.80;;;;;;5037151;28;19909;-68
2022/08/19 11:49:11;;;;;;;;;;;25.30;71.90;;;;;;5047394;28;20015;-68
2022/08/19 11:51:36;;;;;;;;;;;25.30;71.60;;;;;;5053051;28;19951;-68
2022/08/19 11:54:04;;;;;;;;;;;25.50;71.10;;;;;;5047005;28;20314;-68
2022/08/19 11:56:30;;;;;;;;;;;25.60;70.70;;;;;;5047402;28;19967;-68
2022/08/19 11:58:58;;;;;;;;;;;25.70;70.50;;;;;;5065820;28;19912;-68
2022/08/19 12:01:25;;;;;;;;;;;25.90;69.90;;;;;;5066105;28;19919;-68
2022/08/19 12:03:51;;;;;;;;;;;25.90;69.90;;;;;;5054774;28;19916;-69
2022/08/19 12:06:19;;;;;;;;;;;26.00;69.80;;;;;;5052200;28;19919;-68
2022/08/19 12:08:45;;;;;;;;;;;26.10;70.90;;;;;;5047393;28;19913;-68
2022/08/19 12:11:12;;;;;;;;;;;26.10;70.30;;;;;;5046957;28;19947;-68
2022/08/19 12:13:38;;;;;;;;;;;26.20;70.00;;;;;;5048001;28;20403;-70
2022/08/19 12:16:12;;;;;;;;;;;26.20;70.40;;;;;;5051098;28;19913;-68
2022/08/19 12:18:38;;;;;;;;;;;26.20;70.20;;;;;;5047360;28;19909;-68
2022/08/19 12:21:04;;;;;;;;;;;26.20;70.60;;;;;;5046118;28;19955;-68
2022/08/19 12:23:30;;;;;;;;;;;26.20;70.60;;;;;;5046379;28;20361;-68
2022/08/19 12:25:56;;;;;;;;;;;26.30;70.00;;;;;;5046030;28;19959;-68
2022/08/19 12:28:23;;;;;;;;;;;26.40;70.20;;;;;;5045887;28;19912;-68
2022/08/19 12:30:50;;;;;;;;;;;26.40;69.80;;;;;;5052250;28;20536;-69
2022/08/19 12:33:16;;;;;;;;;;;26.50;69.40;;;;;;5049219;28;19917;-69
2022/08/19 12:35:43;;;;;;;;;;;26.60;69.60;;;;;;5049442;28;20273;-68
2022/08/19 12:38:10;;;;;;;;;;;26.70;69.60;;;;;;5047844;28;19956;-68
2022/08/19 12:40:35;;;;;;;;;;;26.70;69.30;;;;;;5045649;28;19913;-68
2022/08/19 12:43:01;;;;;;;;;;;26.80;69.20;;;;;;5045860;28;19920;-68
2022/08/19 12:45:27;;;;;;;;;;;26.90;69.20;;;;;;5045699;28;20001;-69
2022/08/19 12:47:52;;;;;;;;;;;26.90;69.00;;;;;;5052819;28;19912;-68
2022/08/19 12:50:19;;;;;;;;;;;27.00;68.60;;;;;;5045716;28;20063;-69
2022/08/19 12:52:44;;;;;;;;;;;27.00;68.10;;;;;;5046161;28;19928;-69
2022/08/19 12:55:11;;;;;;;;;;;27.00;68.60;;;;;;5045586;28;19913;-68
2022/08/19 12:57:37;;;;;;;;;;;26.90;68.60;;;;;;5045627;28;19920;-68
2022/08/19 13:00:11;;;;;;;;;;;26.90;69.00;;;;;;5045520;28;19935;-68
2022/08/19 13:02:38;;;;;;;;;;;27.00;69.30;;;;;;5050325;28;20023;-70
2022/08/19 13:05:04;;;;;;;;;;;27.10;69.20;;;;;;5045305;28;19913;-69
2022/08/19 13:07:31;;;;;;;;;;;27.10;69.10;;;;;;5045788;28;19924;-69
2022/08/19 13:09:56;;;;;;;;;;;27.20;69.10;;;;;;5045151;28;20550;-69
2022/08/19 13:12:26;;;;;;;;;;;27.20;68.90;;;;;;5044949;28;19920;-68
2022/08/19 13:14:52;;;;;;;;;;;27.30;68.50;;;;;;5045280;28;19955;-69
2022/08/19 13:17:20;;;;;;;;;;;27.40;68.40;;;;;;5049137;28;20425;-68
2022/08/19 13:19:45;;;;;;;;;;;27.40;68.00;;;;;;5046913;28;20616;-69
2022/08/19 13:22:12;;;;;;;;;;;27.50;67.80;;;;;;5056143;28;20323;-70
2022/08/19 13:24:37;;;;;;;;;;;27.50;68.30;;;;;;5045476;28;19923;-68
2022/08/19 13:27:03;;;;;;;;;;;27.60;68.00;;;;;;5044908;28;19916;-69
2022/08/19 13:34:56;;;;;;;;;;;27.80;68.10;;;;;;5045155;28;19927;-69
2022/08/19 13:37:40;;;;;;;;;;;27.80;67.20;;;;;;5046105;28;19908;-69
2022/08/19 13:40:19;;;;;;;;;;;27.80;67.60;;;;;;5050978;28;20613;-69
2022/08/19 13:42:47;;;;;;;;;;;27.90;66.90;;;;;;5045633;28;20673;-68
2022/08/19 13:45:13;;;;;;;;;;;28.00;66.80;;;;;;5045948;28;19908;-68
2022/08/19 13:47:42;;;;;;;;;;;28.00;67.00;;;;;;5056133;28;19913;-68
2022/08/19 13:50:09;;;;;;;;;;;28.10;67.40;;;;;;5050129;28;19959;-68
2022/08/19 13:52:35;;;;;;;;;;;28.20;66.90;;;;;;5049517;28;19974;-68
2022/08/19 13:55:00;;;;;;;;;;;28.20;66.50;;;;;;5049947;28;19916;-69
2022/08/19 13:57:25;;;;;;;;;;;28.20;67.00;;;;;;5050634;28;19916;-69
2022/08/19 13:59:51;;;;;;;;;;;28.30;66.20;;;;;;5049518;28;19992;-69
2022/08/19 14:02:17;;;;;;;;;;;28.40;65.90;;;;;;5054568;28;20261;-69
2022/08/19 14:04:42;;;;;;;;;;;28.40;65.50;;;;;;5049345;28;19917;-69
2022/08/19 14:07:09;;;;;;;;;;;28.40;65.70;;;;;;5049263;28;19920;-68
2022/08/19 14:09:34;;;;;;;;;;;28.50;64.00;;;;;;5049379;28;19919;-69
2022/08/19 14:12:00;;;;;;;;;;;28.50;64.60;;;;;;5049270;28;19913;-68
2022/08/19 14:14:25;;;;;;;;;;;28.50;64.40;;;;;;5050218;28;19936;-68
2022/08/19 14:16:51;;;;;;;;;;;28.50;63.30;;;;;;5053976;28;19943;-68
2022/08/19 14:19:17;;;;;;;;;;;28.60;65.70;;;;;;5049404;28;20011;-68
2022/08/19 14:21:42;;;;;;;;;;;28.60;64.00;;;;;;5048983;28;20607;-68
2022/08/19 14:24:08;;;;;;;;;;;28.70;64.40;;;;;;5036073;28;19929;-68
2022/08/19 14:26:33;;;;;;;;;;;28.70;64.90;;;;;;5051204;28;19974;-68
2022/08/19 14:28:59;;;;;;;;;;;28.70;64.60;;;;;;5035808;28;19924;-68
2022/08/19 14:31:25;;;;;;;;;;;28.80;64.00;;;;;;5068115;28;20026;-69
2022/08/19 14:33:51;;;;;;;;;;;28.80;63.40;;;;;;5051546;28;19923;-68
2022/08/19 14:36:17;;;;;;;;;;;28.90;62.40;;;;;;5056266;28;19916;-68
2022/08/19 14:38:43;;;;;;;;;;;29.00;62.80;;;;;;5065767;28;19912;-68
2022/08/19 14:41:20;;;;;;;;;;;29.00;62.90;;;;;;5050332;28;19919;-68